sensor_id;sensor_type;location;lat;lon;timestamp;P1;durP1;ratioP1;P2;durP2;ratioP2
66607;SDS011;53462;39.616;8.824;2022-09-02T00:00:52;9.95;;;5.80;;
66607;SDS011;53462;39.616;8.824;2022-09-02T00:03:24;8.48;;;5.38;;
66607;SDS011;53462;39.616;8.824;2022-09-02T00:05:50;11.50;;;5.93;;
66607;SDS011;53462;39.616;8.824;2022-09-02T00:08:16;9.38;;;4.72;;
66607;SDS011;53462;39.616;8.824;2022-09-02T00:10:43;9.48;;;4.57;;
66607;SDS011;53462;39.616;8.824;2022-09-02T00:13:11;7.40;;;4.65;;
66607;SDS011;53462;39.616;8.824;2022-09-02T00:15:40;8.93;;;4.38;;
66607;SDS011;53462;39.616;8.824;2022-09-02T00:18:07;9.25;;;4.97;;
66607;SDS011;53462;39.616;8.824;2022-09-02T00:20:39;6.70;;;4.60;;
66607;SDS011;53462;39.616;8.824;2022-09-02T00:23:06;19.08;;;8.52;;
66607;SDS011;53462;39.616;8.824;2022-09-02T00:25:37;10.82;;;7.65;;
66607;SDS011;53462;39.616;8.824;2022-09-02T00:28:05;11.88;;;6.50;;
66607;SDS011;53462;39.616;8.824;2022-09-02T00:30:32;16.20;;;7.57;;
66607;SDS011;53462;39.616;8.824;2022-09-02T00:32:59;10.50;;;6.15;;
66607;SDS011;53462;39.616;8.824;2022-09-02T00:35:28;8.23;;;4.85;;
66607;SDS011;53462;39.616;8.824;2022-09-02T00:37:54;7.07;;;4.50;;
66607;SDS011;53462;39.616;8.824;2022-09-02T00:40:20;7.82;;;4.63;;
66607;SDS011;53462;39.616;8.824;2022-09-02T00:42:48;7.53;;;5.10;;
66607;SDS011;53462;39.616;8.824;2022-09-02T00:45:14;10.45;;;5.15;;
66607;SDS011;53462;39.616;8.824;2022-09-02T00:47:42;9.15;;;4.32;;
66607;SDS011;53462;39.616;8.824;2022-09-02T00:50:15;10.80;;;4.80;;
66607;SDS011;53462;39.616;8.824;2022-09-02T00:52:49;9.68;;;4.35;;
66607;SDS011;53462;39.616;8.824;2022-09-02T00:55:21;11.00;;;4.95;;
66607;SDS011;53462;39.616;8.824;2022-09-02T00:58:00;7.88;;;4.28;;
66607;SDS011;53462;39.616;8.824;2022-09-02T01:00:33;10.25;;;4.32;;
66607;SDS011;53462;39.616;8.824;2022-09-02T01:03:04;7.25;;;4.50;;
66607;SDS011;53462;39.616;8.824;2022-09-02T01:05:34;8.05;;;4.07;;
66607;SDS011;53462;39.616;8.824;2022-09-02T01:08:03;10.65;;;4.53;;
66607;SDS011;53462;39.616;8.824;2022-09-02T01:10:34;6.88;;;3.72;;
66607;SDS011;53462;39.616;8.824;2022-09-02T01:13:02;8.73;;;3.55;;
66607;SDS011;53462;39.616;8.824;2022-09-02T01:15:31;12.23;;;4.35;;
66607;SDS011;53462;39.616;8.824;2022-09-02T01:18:05;6.63;;;3.63;;
66607;SDS011;53462;39.616;8.824;2022-09-02T01:20:33;31.85;;;11.18;;
66607;SDS011;53462;39.616;8.824;2022-09-02T01:23:00;16.83;;;7.68;;
66607;SDS011;53462;39.616;8.824;2022-09-02T01:25:28;15.05;;;7.35;;
66607;SDS011;53462;39.616;8.824;2022-09-02T01:28:04;14.05;;;6.03;;
66607;SDS011;53462;39.616;8.824;2022-09-02T01:30:35;11.43;;;5.32;;
66607;SDS011;53462;39.616;8.824;2022-09-02T01:33:03;8.05;;;4.43;;
66607;SDS011;53462;39.616;8.824;2022-09-02T01:35:29;11.30;;;4.72;;
66607;SDS011;53462;39.616;8.824;2022-09-02T01:37:56;7.43;;;4.50;;
66607;SDS011;53462;39.616;8.824;2022-09-02T01:40:24;6.72;;;4.00;;
66607;SDS011;53462;39.616;8.824;2022-09-02T01:43:02;8.80;;;4.30;;
66607;SDS011;53462;39.616;8.824;2022-09-02T01:45:38;7.00;;;4.53;;
66607;SDS011;53462;39.616;8.824;2022-09-02T01:48:06;8.57;;;4.68;;
66607;SDS011;53462;39.616;8.824;2022-09-02T01:50:35;9.75;;;4.40;;
66607;SDS011;53462;39.616;8.824;2022-09-02T01:53:02;10.25;;;4.50;;
66607;SDS011;53462;39.616;8.824;2022-09-02T01:55:30;8.15;;;4.45;;
66607;SDS011;53462;39.616;8.824;2022-09-02T01:57:58;9.40;;;4.53;;
66607;SDS011;53462;39.616;8.824;2022-09-02T02:00:25;7.93;;;4.10;;
66607;SDS011;53462;39.616;8.824;2022-09-02T02:02:52;6.38;;;4.05;;
66607;SDS011;53462;39.616;8.824;2022-09-02T02:05:18;7.05;;;4.22;;
66607;SDS011;53462;39.616;8.824;2022-09-02T02:07:46;7.43;;;4.00;;
66607;SDS011;53462;39.616;8.824;2022-09-02T02:10:13;10.48;;;4.80;;
66607;SDS011;53462;39.616;8.824;2022-09-02T02:12:42;11.60;;;4.50;;
66607;SDS011;53462;39.616;8.824;2022-09-02T02:15:10;9.00;;;4.88;;
66607;SDS011;53462;39.616;8.824;2022-09-02T02:17:39;11.75;;;4.30;;
66607;SDS011;53462;39.616;8.824;2022-09-02T02:20:05;7.45;;;4.35;;
66607;SDS011;53462;39.616;8.824;2022-09-02T02:22:33;11.27;;;4.22;;
66607;SDS011;53462;39.616;8.824;2022-09-02T02:24:59;8.05;;;3.95;;
66607;SDS011;53462;39.616;8.824;2022-09-02T02:27:27;9.80;;;4.20;;
66607;SDS011;53462;39.616;8.824;2022-09-02T02:29:53;12.18;;;5.60;;
66607;SDS011;53462;39.616;8.824;2022-09-02T02:32:20;12.63;;;4.88;;
66607;SDS011;53462;39.616;8.824;2022-09-02T02:34:47;9.82;;;4.82;;
66607;SDS011;53462;39.616;8.824;2022-09-02T02:37:14;7.60;;;4.40;;
66607;SDS011;53462;39.616;8.824;2022-09-02T02:39:40;7.78;;;4.25;;
66607;SDS011;53462;39.616;8.824;2022-09-02T02:42:07;8.95;;;4.32;;
66607;SDS011;53462;39.616;8.824;2022-09-02T02:44:36;10.45;;;4.80;;
66607;SDS011;53462;39.616;8.824;2022-09-02T02:47:03;7.25;;;4.47;;
66607;SDS011;53462;39.616;8.824;2022-09-02T02:49:30;7.63;;;3.88;;
66607;SDS011;53462;39.616;8.824;2022-09-02T02:52:02;8.57;;;4.63;;
66607;SDS011;53462;39.616;8.824;2022-09-02T02:54:28;6.30;;;3.83;;
66607;SDS011;53462;39.616;8.824;2022-09-02T02:56:57;9.38;;;4.13;;
66607;SDS011;53462;39.616;8.824;2022-09-02T02:59:23;10.27;;;4.03;;
66607;SDS011;53462;39.616;8.824;2022-09-02T03:01:51;7.10;;;3.83;;
66607;SDS011;53462;39.616;8.824;2022-09-02T03:04:17;7.50;;;3.75;;
66607;SDS011;53462;39.616;8.824;2022-09-02T03:06:44;9.10;;;4.05;;
66607;SDS011;53462;39.616;8.824;2022-09-02T03:09:10;6.85;;;3.58;;
66607;SDS011;53462;39.616;8.824;2022-09-02T03:11:37;8.38;;;3.10;;
66607;SDS011;53462;39.616;8.824;2022-09-02T03:14:03;7.57;;;3.65;;
66607;SDS011;53462;39.616;8.824;2022-09-02T03:16:32;5.82;;;3.50;;
66607;SDS011;53462;39.616;8.824;2022-09-02T03:18:59;6.45;;;3.08;;
66607;SDS011;53462;39.616;8.824;2022-09-02T03:21:26;8.50;;;3.78;;
66607;SDS011;53462;39.616;8.824;2022-09-02T03:23:52;16.40;;;7.90;;
66607;SDS011;53462;39.616;8.824;2022-09-02T03:26:20;9.80;;;5.82;;
66607;SDS011;53462;39.616;8.824;2022-09-02T03:28:52;6.18;;;3.60;;
66607;SDS011;53462;39.616;8.824;2022-09-02T03:31:20;6.90;;;4.35;;
66607;SDS011;53462;39.616;8.824;2022-09-02T03:33:48;7.38;;;4.15;;
66607;SDS011;53462;39.616;8.824;2022-09-02T03:36:27;9.65;;;5.63;;
66607;SDS011;53462;39.616;8.824;2022-09-02T03:38:58;6.70;;;4.05;;
66607;SDS011;53462;39.616;8.824;2022-09-02T03:41:27;7.70;;;4.40;;
66607;SDS011;53462;39.616;8.824;2022-09-02T03:43:54;8.25;;;3.97;;
66607;SDS011;53462;39.616;8.824;2022-09-02T03:46:20;6.57;;;3.70;;
66607;SDS011;53462;39.616;8.824;2022-09-02T03:48:47;9.50;;;4.10;;
66607;SDS011;53462;39.616;8.824;2022-09-02T03:51:20;6.63;;;4.00;;
66607;SDS011;53462;39.616;8.824;2022-09-02T03:53:47;10.23;;;3.58;;
66607;SDS011;53462;39.616;8.824;2022-09-02T03:56:14;9.02;;;3.58;;
66607;SDS011;53462;39.616;8.824;2022-09-02T03:58:42;7.22;;;3.60;;
66607;SDS011;53462;39.616;8.824;2022-09-02T04:01:17;9.43;;;3.53;;
66607;SDS011;53462;39.616;8.824;2022-09-02T04:03:46;7.03;;;3.30;;
66607;SDS011;53462;39.616;8.824;2022-09-02T04:06:13;4.25;;;2.83;;
66607;SDS011;53462;39.616;8.824;2022-09-02T04:08:42;5.45;;;3.17;;
66607;SDS011;53462;39.616;8.824;2022-09-02T04:11:10;6.50;;;3.20;;
66607;SDS011;53462;39.616;8.824;2022-09-02T04:13:40;4.53;;;2.53;;
66607;SDS011;53462;39.616;8.824;2022-09-02T04:16:07;7.80;;;3.88;;
66607;SDS011;53462;39.616;8.824;2022-09-02T04:18:38;6.47;;;3.55;;
66607;SDS011;53462;39.616;8.824;2022-09-02T04:21:04;5.70;;;2.95;;
66607;SDS011;53462;39.616;8.824;2022-09-02T04:23:32;5.43;;;3.25;;
66607;SDS011;53462;39.616;8.824;2022-09-02T04:26:03;6.97;;;3.25;;
66607;SDS011;53462;39.616;8.824;2022-09-02T04:28:33;8.90;;;3.17;;
66607;SDS011;53462;39.616;8.824;2022-09-02T04:31:04;5.68;;;3.40;;
66607;SDS011;53462;39.616;8.824;2022-09-02T04:33:32;7.68;;;3.92;;
66607;SDS011;53462;39.616;8.824;2022-09-02T04:35:59;7.43;;;3.75;;
66607;SDS011;53462;39.616;8.824;2022-09-02T04:38:33;9.55;;;4.25;;
66607;SDS011;53462;39.616;8.824;2022-09-02T04:41:03;6.53;;;3.25;;
66607;SDS011;53462;39.616;8.824;2022-09-02T04:43:31;12.88;;;3.55;;
66607;SDS011;53462;39.616;8.824;2022-09-02T04:45:57;5.40;;;3.55;;
66607;SDS011;53462;39.616;8.824;2022-09-02T04:48:23;5.40;;;3.30;;
66607;SDS011;53462;39.616;8.824;2022-09-02T04:50:49;6.90;;;3.40;;
66607;SDS011;53462;39.616;8.824;2022-09-02T04:53:16;7.10;;;4.10;;
66607;SDS011;53462;39.616;8.824;2022-09-02T04:55:42;6.00;;;3.63;;
66607;SDS011;53462;39.616;8.824;2022-09-02T04:58:10;7.28;;;3.28;;
66607;SDS011;53462;39.616;8.824;2022-09-02T05:00:37;4.72;;;2.70;;
66607;SDS011;53462;39.616;8.824;2022-09-02T05:03:08;6.65;;;3.65;;
66607;SDS011;53462;39.616;8.824;2022-09-02T05:05:36;10.52;;;4.05;;
66607;SDS011;53462;39.616;8.824;2022-09-02T05:08:04;8.93;;;3.63;;
66607;SDS011;53462;39.616;8.824;2022-09-02T05:10:31;8.32;;;3.28;;
66607;SDS011;53462;39.616;8.824;2022-09-02T05:12:58;7.65;;;3.45;;
66607;SDS011;53462;39.616;8.824;2022-09-02T05:15:26;8.75;;;3.88;;
66607;SDS011;53462;39.616;8.824;2022-09-02T05:17:53;8.70;;;4.07;;
66607;SDS011;53462;39.616;8.824;2022-09-02T05:20:19;6.85;;;4.00;;
66607;SDS011;53462;39.616;8.824;2022-09-02T05:22:45;9.77;;;3.72;;
66607;SDS011;53462;39.616;8.824;2022-09-02T05:25:14;7.97;;;3.50;;
66607;SDS011;53462;39.616;8.824;2022-09-02T05:27:40;11.50;;;3.75;;
66607;SDS011;53462;39.616;8.824;2022-09-02T05:30:07;9.77;;;3.55;;
66607;SDS011;53462;39.616;8.824;2022-09-02T05:32:34;11.13;;;4.53;;
66607;SDS011;53462;39.616;8.824;2022-09-02T05:35:00;11.48;;;4.50;;
66607;SDS011;53462;39.616;8.824;2022-09-02T05:37:26;12.55;;;6.20;;
66607;SDS011;53462;39.616;8.824;2022-09-02T05:39:52;10.30;;;6.07;;
66607;SDS011;53462;39.616;8.824;2022-09-02T05:42:19;16.15;;;7.50;;
66607;SDS011;53462;39.616;8.824;2022-09-02T05:44:47;17.17;;;8.65;;
66607;SDS011;53462;39.616;8.824;2022-09-02T05:47:17;15.15;;;8.20;;
66607;SDS011;53462;39.616;8.824;2022-09-02T05:49:43;20.48;;;7.95;;
66607;SDS011;53462;39.616;8.824;2022-09-02T05:52:12;12.27;;;6.35;;
66607;SDS011;53462;39.616;8.824;2022-09-02T05:54:44;9.75;;;4.53;;
66607;SDS011;53462;39.616;8.824;2022-09-02T05:57:14;12.73;;;4.35;;
66607;SDS011;53462;39.616;8.824;2022-09-02T06:00:04;14.95;;;4.13;;
66607;SDS011;53462;39.616;8.824;2022-09-02T06:02:41;10.75;;;4.68;;
66607;SDS011;53462;39.616;8.824;2022-09-02T06:05:15;13.10;;;4.30;;
66607;SDS011;53462;39.616;8.824;2022-09-02T06:07:48;7.93;;;4.10;;
66607;SDS011;53462;39.616;8.824;2022-09-02T06:10:18;9.90;;;4.85;;
66607;SDS011;53462;39.616;8.824;2022-09-02T06:12:44;7.55;;;4.60;;
66607;SDS011;53462;39.616;8.824;2022-09-02T06:15:11;8.98;;;4.20;;
66607;SDS011;53462;39.616;8.824;2022-09-02T06:17:39;7.47;;;4.47;;
66607;SDS011;53462;39.616;8.824;2022-09-02T06:20:05;9.10;;;4.43;;
66607;SDS011;53462;39.616;8.824;2022-09-02T06:22:32;7.35;;;4.20;;
66607;SDS011;53462;39.616;8.824;2022-09-02T06:24:58;7.35;;;4.47;;
66607;SDS011;53462;39.616;8.824;2022-09-02T06:27:25;8.98;;;4.25;;
66607;SDS011;53462;39.616;8.824;2022-09-02T06:29:52;8.63;;;4.50;;
66607;SDS011;53462;39.616;8.824;2022-09-02T06:32:21;8.52;;;4.10;;
66607;SDS011;53462;39.616;8.824;2022-09-02T06:34:52;10.68;;;4.82;;
66607;SDS011;53462;39.616;8.824;2022-09-02T06:37:19;11.77;;;3.90;;
66607;SDS011;53462;39.616;8.824;2022-09-02T06:39:45;18.20;;;4.38;;
66607;SDS011;53462;39.616;8.824;2022-09-02T06:42:18;10.97;;;4.70;;
66607;SDS011;53462;39.616;8.824;2022-09-02T06:45:00;7.20;;;3.45;;
66607;SDS011;53462;39.616;8.824;2022-09-02T06:47:26;8.07;;;3.50;;
66607;SDS011;53462;39.616;8.824;2022-09-02T06:49:53;6.47;;;3.10;;
66607;SDS011;53462;39.616;8.824;2022-09-02T06:52:20;5.03;;;3.20;;
66607;SDS011;53462;39.616;8.824;2022-09-02T06:54:46;7.65;;;3.30;;
66607;SDS011;53462;39.616;8.824;2022-09-02T06:57:14;6.50;;;3.10;;
66607;SDS011;53462;39.616;8.824;2022-09-02T06:59:41;6.07;;;2.97;;
66607;SDS011;53462;39.616;8.824;2022-09-02T07:02:07;5.45;;;2.92;;
66607;SDS011;53462;39.616;8.824;2022-09-02T07:04:35;7.82;;;3.38;;
66607;SDS011;53462;39.616;8.824;2022-09-02T07:07:20;8.00;;;3.05;;
66607;SDS011;53462;39.616;8.824;2022-09-02T07:09:52;11.80;;;3.55;;
66607;SDS011;53462;39.616;8.824;2022-09-02T07:12:19;8.75;;;3.20;;
66607;SDS011;53462;39.616;8.824;2022-09-02T07:14:51;19.17;;;3.97;;
66607;SDS011;53462;39.616;8.824;2022-09-02T07:17:23;9.55;;;3.40;;
66607;SDS011;53462;39.616;8.824;2022-09-02T07:19:56;7.70;;;3.78;;
66607;SDS011;53462;39.616;8.824;2022-09-02T07:22:26;9.27;;;3.95;;
66607;SDS011;53462;39.616;8.824;2022-09-02T07:24:53;8.65;;;3.90;;
66607;SDS011;53462;39.616;8.824;2022-09-02T07:27:19;7.82;;;3.90;;
66607;SDS011;53462;39.616;8.824;2022-09-02T07:29:47;7.88;;;3.60;;
66607;SDS011;53462;39.616;8.824;2022-09-02T07:32:15;9.82;;;3.40;;
66607;SDS011;53462;39.616;8.824;2022-09-02T07:34:41;8.73;;;3.40;;
66607;SDS011;53462;39.616;8.824;2022-09-02T07:37:10;8.05;;;3.33;;
66607;SDS011;53462;39.616;8.824;2022-09-02T07:39:36;6.75;;;3.13;;
66607;SDS011;53462;39.616;8.824;2022-09-02T07:42:02;11.27;;;3.00;;
66607;SDS011;53462;39.616;8.824;2022-09-02T07:44:29;4.15;;;2.85;;
66607;SDS011;53462;39.616;8.824;2022-09-02T07:46:57;6.43;;;2.60;;
66607;SDS011;53462;39.616;8.824;2022-09-02T07:49:24;5.53;;;2.72;;
66607;SDS011;53462;39.616;8.824;2022-09-02T07:51:52;7.15;;;2.80;;
66607;SDS011;53462;39.616;8.824;2022-09-02T07:54:20;6.75;;;2.78;;
66607;SDS011;53462;39.616;8.824;2022-09-02T07:56:49;3.80;;;2.60;;
66607;SDS011;53462;39.616;8.824;2022-09-02T07:59:17;7.93;;;2.30;;
66607;SDS011;53462;39.616;8.824;2022-09-02T08:01:44;4.22;;;2.30;;
66607;SDS011;53462;39.616;8.824;2022-09-02T08:04:14;6.00;;;2.38;;
66607;SDS011;53462;39.616;8.824;2022-09-02T08:06:40;2.75;;;2.00;;
66607;SDS011;53462;39.616;8.824;2022-09-02T08:09:07;5.03;;;2.30;;
66607;SDS011;53462;39.616;8.824;2022-09-02T08:11:36;3.17;;;2.10;;
66607;SDS011;53462;39.616;8.824;2022-09-02T08:16:36;2.97;;;2.30;;
66607;SDS011;53462;39.616;8.824;2022-09-02T08:19:03;6.07;;;2.30;;
66607;SDS011;53462;39.616;8.824;2022-09-02T08:21:30;4.10;;;2.10;;
66607;SDS011;53462;39.616;8.824;2022-09-02T08:23:56;4.25;;;1.90;;
66607;SDS011;53462;39.616;8.824;2022-09-02T08:26:23;2.85;;;1.85;;
66607;SDS011;53462;39.616;8.824;2022-09-02T08:28:50;3.13;;;1.80;;
66607;SDS011;53462;39.616;8.824;2022-09-02T08:31:16;3.63;;;1.88;;
66607;SDS011;53462;39.616;8.824;2022-09-02T08:33:42;5.97;;;2.00;;
66607;SDS011;53462;39.616;8.824;2022-09-02T08:36:09;3.38;;;2.05;;
66607;SDS011;53462;39.616;8.824;2022-09-02T08:38:36;3.00;;;1.80;;
66607;SDS011;53462;39.616;8.824;2022-09-02T08:41:09;3.33;;;1.80;;
66607;SDS011;53462;39.616;8.824;2022-09-02T08:43:47;4.38;;;1.90;;
66607;SDS011;53462;39.616;8.824;2022-09-02T08:46:17;8.27;;;2.47;;
66607;SDS011;53462;39.616;8.824;2022-09-02T08:48:54;3.25;;;1.90;;
66607;SDS011;53462;39.616;8.824;2022-09-02T08:51:26;4.13;;;2.10;;
66607;SDS011;53462;39.616;8.824;2022-09-02T08:56:45;5.03;;;2.05;;
66607;SDS011;53462;39.616;8.824;2022-09-02T08:59:12;2.63;;;1.60;;
66607;SDS011;53462;39.616;8.824;2022-09-02T09:15:32;3.83;;;1.80;;
66607;SDS011;53462;39.616;8.824;2022-09-02T09:18:10;4.95;;;2.08;;
66607;SDS011;53462;39.616;8.824;2022-09-02T09:20:40;3.38;;;1.70;;
66607;SDS011;53462;39.616;8.824;2022-09-02T09:23:19;2.05;;;1.60;;
66607;SDS011;53462;39.616;8.824;2022-09-02T09:25:49;4.07;;;1.80;;
66607;SDS011;53462;39.616;8.824;2022-09-02T09:28:20;2.20;;;1.92;;
66607;SDS011;53462;39.616;8.824;2022-09-02T09:30:46;2.80;;;1.50;;
66607;SDS011;53462;39.616;8.824;2022-09-02T09:33:13;3.65;;;1.70;;
66607;SDS011;53462;39.616;8.824;2022-09-02T09:35:46;3.47;;;1.90;;
66607;SDS011;53462;39.616;8.824;2022-09-02T09:38:14;3.38;;;1.90;;
66607;SDS011;53462;39.616;8.824;2022-09-02T09:40:40;3.35;;;2.10;;
66607;SDS011;53462;39.616;8.824;2022-09-02T09:45:37;3.25;;;1.90;;
66607;SDS011;53462;39.616;8.824;2022-09-02T09:53:24;4.47;;;1.75;;
66607;SDS011;53462;39.616;8.824;2022-09-02T09:55:56;3.60;;;1.95;;
66607;SDS011;53462;39.616;8.824;2022-09-02T09:58:32;3.22;;;1.98;;
66607;SDS011;53462;39.616;8.824;2022-09-02T10:01:11;2.35;;;1.70;;
66607;SDS011;53462;39.616;8.824;2022-09-02T10:03:56;3.30;;;1.65;;
66607;SDS011;53462;39.616;8.824;2022-09-02T10:06:49;5.72;;;1.80;;
66607;SDS011;53462;39.616;8.824;2022-09-02T10:14:19;3.70;;;1.70;;
66607;SDS011;53462;39.616;8.824;2022-09-02T10:30:58;2.03;;;1.70;;
66607;SDS011;53462;39.616;8.824;2022-09-02T10:36:15;2.42;;;1.70;;
66607;SDS011;53462;39.616;8.824;2022-09-02T10:38:48;3.75;;;1.70;;
66607;SDS011;53462;39.616;8.824;2022-09-02T10:44:27;3.35;;;1.65;;
66607;SDS011;53462;39.616;8.824;2022-09-02T10:46:52;2.78;;;1.55;;
66607;SDS011;53462;39.616;8.824;2022-09-02T10:52:12;7.18;;;1.70;;
66607;SDS011;53462;39.616;8.824;2022-09-02T10:54:58;4.40;;;1.50;;
66607;SDS011;53462;39.616;8.824;2022-09-02T10:57:57;4.65;;;1.40;;
66607;SDS011;53462;39.616;8.824;2022-09-02T11:03:01;5.85;;;1.60;;
66607;SDS011;53462;39.616;8.824;2022-09-02T11:05:46;2.53;;;1.38;;
66607;SDS011;53462;39.616;8.824;2022-09-02T11:08:20;6.15;;;1.67;;
66607;SDS011;53462;39.616;8.824;2022-09-02T11:11:10;2.88;;;1.52;;
66607;SDS011;53462;39.616;8.824;2022-09-02T11:17:13;2.53;;;1.40;;
66607;SDS011;53462;39.616;8.824;2022-09-02T11:19:56;2.75;;;1.33;;
66607;SDS011;53462;39.616;8.824;2022-09-02T11:25:06;2.50;;;1.40;;
66607;SDS011;53462;39.616;8.824;2022-09-02T11:27:43;2.10;;;1.50;;
66607;SDS011;53462;39.616;8.824;2022-09-02T11:30:17;3.45;;;1.40;;
66607;SDS011;53462;39.616;8.824;2022-09-02T11:35:22;2.97;;;1.48;;
66607;SDS011;53462;39.616;8.824;2022-09-02T11:43:02;2.40;;;1.70;;
66607;SDS011;53462;39.616;8.824;2022-09-02T11:54:23;3.47;;;1.65;;
66607;SDS011;53462;39.616;8.824;2022-09-02T11:56:57;5.00;;;1.50;;
66607;SDS011;53462;39.616;8.824;2022-09-02T12:02:36;2.30;;;1.38;;
66607;SDS011;53462;39.616;8.824;2022-09-02T12:08:00;2.63;;;1.38;;
66607;SDS011;53462;39.616;8.824;2022-09-02T12:11:32;3.78;;;1.33;;
66607;SDS011;53462;39.616;8.824;2022-09-02T12:13:36;2.70;;;1.38;;
66607;SDS011;53462;39.616;8.824;2022-09-02T12:21:20;2.70;;;1.58;;
66607;SDS011;53462;39.616;8.824;2022-09-02T12:26:14;3.03;;;1.63;;
66607;SDS011;53462;39.616;8.824;2022-09-02T12:28:41;3.00;;;1.60;;
66607;SDS011;53462;39.616;8.824;2022-09-02T12:31:55;2.95;;;1.60;;
66607;SDS011;53462;39.616;8.824;2022-09-02T12:50:03;3.13;;;1.40;;
66607;SDS011;53462;39.616;8.824;2022-09-02T12:52:38;2.55;;;1.55;;
66607;SDS011;53462;39.616;8.824;2022-09-02T12:57:42;3.97;;;1.60;;
66607;SDS011;53462;39.616;8.824;2022-09-02T13:00:12;3.30;;;1.60;;
66607;SDS011;53462;39.616;8.824;2022-09-02T13:03:02;3.28;;;1.55;;
66607;SDS011;53462;39.616;8.824;2022-09-02T13:05:53;3.45;;;1.70;;
66607;SDS011;53462;39.616;8.824;2022-09-02T13:31:58;4.22;;;2.00;;
66607;SDS011;53462;39.616;8.824;2022-09-02T13:34:29;3.72;;;2.05;;
66607;SDS011;53462;39.616;8.824;2022-09-02T13:36:56;4.63;;;2.35;;
66607;SDS011;53462;39.616;8.824;2022-09-02T13:39:26;4.75;;;1.90;;
66607;SDS011;53462;39.616;8.824;2022-09-02T13:41:53;5.32;;;2.05;;
66607;SDS011;53462;39.616;8.824;2022-09-02T13:44:20;3.53;;;2.00;;
66607;SDS011;53462;39.616;8.824;2022-09-02T13:46:51;5.35;;;1.80;;
66607;SDS011;53462;39.616;8.824;2022-09-02T13:49:34;5.25;;;1.92;;
66607;SDS011;53462;39.616;8.824;2022-09-02T13:52:04;3.70;;;1.83;;
66607;SDS011;53462;39.616;8.824;2022-09-02T13:54:36;4.82;;;1.80;;
66607;SDS011;53462;39.616;8.824;2022-09-02T13:57:06;5.45;;;2.20;;
66607;SDS011;53462;39.616;8.824;2022-09-02T13:59:37;5.57;;;2.05;;
66607;SDS011;53462;39.616;8.824;2022-09-02T14:04:56;6.20;;;1.95;;
66607;SDS011;53462;39.616;8.824;2022-09-02T14:07:30;4.60;;;1.77;;
66607;SDS011;53462;39.616;8.824;2022-09-02T14:10:03;5.80;;;1.80;;
66607;SDS011;53462;39.616;8.824;2022-09-02T14:12:32;5.63;;;2.78;;
66607;SDS011;53462;39.616;8.824;2022-09-02T14:15:00;4.22;;;2.15;;
66607;SDS011;53462;39.616;8.824;2022-09-02T14:17:27;4.85;;;2.00;;
66607;SDS011;53462;39.616;8.824;2022-09-02T14:22:41;4.13;;;2.17;;
66607;SDS011;53462;39.616;8.824;2022-09-02T14:25:16;7.60;;;3.10;;
66607;SDS011;53462;39.616;8.824;2022-09-02T14:27:50;4.70;;;2.50;;
66607;SDS011;53462;39.616;8.824;2022-09-02T14:30:28;6.32;;;2.53;;
66607;SDS011;53462;39.616;8.824;2022-09-02T14:35:59;7.38;;;2.90;;
66607;SDS011;53462;39.616;8.824;2022-09-02T14:38:30;7.22;;;2.92;;
66607;SDS011;53462;39.616;8.824;2022-09-02T14:50:45;10.10;;;4.13;;
66607;SDS011;53462;39.616;8.824;2022-09-02T14:53:11;8.48;;;4.32;;
66607;SDS011;53462;39.616;8.824;2022-09-02T14:55:52;7.72;;;6.05;;
66607;SDS011;53462;39.616;8.824;2022-09-02T14:58:23;12.95;;;9.07;;
66607;SDS011;53462;39.616;8.824;2022-09-02T15:00:51;13.60;;;7.85;;
66607;SDS011;53462;39.616;8.824;2022-09-02T15:03:22;11.23;;;7.05;;
66607;SDS011;53462;39.616;8.824;2022-09-02T15:05:49;7.72;;;6.10;;
66607;SDS011;53462;39.616;8.824;2022-09-02T15:08:16;10.55;;;5.22;;
66607;SDS011;53462;39.616;8.824;2022-09-02T15:10:42;8.73;;;3.20;;
66607;SDS011;53462;39.616;8.824;2022-09-02T15:13:10;5.38;;;2.33;;
66607;SDS011;53462;39.616;8.824;2022-09-02T15:15:39;5.75;;;3.40;;
66607;SDS011;53462;39.616;8.824;2022-09-02T15:18:05;8.95;;;3.58;;
66607;SDS011;53462;39.616;8.824;2022-09-02T15:20:31;6.43;;;3.13;;
66607;SDS011;53462;39.616;8.824;2022-09-02T15:22:58;6.10;;;2.80;;
66607;SDS011;53462;39.616;8.824;2022-09-02T15:25:24;7.25;;;2.83;;
66607;SDS011;53462;39.616;8.824;2022-09-02T15:27:50;6.03;;;2.70;;
66607;SDS011;53462;39.616;8.824;2022-09-02T15:30:16;6.65;;;2.95;;
66607;SDS011;53462;39.616;8.824;2022-09-02T15:32:43;6.32;;;2.80;;
66607;SDS011;53462;39.616;8.824;2022-09-02T15:35:09;5.53;;;2.78;;
66607;SDS011;53462;39.616;8.824;2022-09-02T15:37:35;4.40;;;2.50;;
66607;SDS011;53462;39.616;8.824;2022-09-02T15:40:06;5.43;;;2.00;;
66607;SDS011;53462;39.616;8.824;2022-09-02T15:42:33;6.40;;;2.28;;
66607;SDS011;53462;39.616;8.824;2022-09-02T15:45:00;8.73;;;2.22;;
66607;SDS011;53462;39.616;8.824;2022-09-02T15:47:28;4.47;;;2.00;;
66607;SDS011;53462;39.616;8.824;2022-09-02T15:49:55;7.97;;;2.08;;
66607;SDS011;53462;39.616;8.824;2022-09-02T15:52:24;3.17;;;1.80;;
66607;SDS011;53462;39.616;8.824;2022-09-02T15:54:52;5.88;;;1.83;;
66607;SDS011;53462;39.616;8.824;2022-09-02T15:57:19;8.88;;;2.05;;
66607;SDS011;53462;39.616;8.824;2022-09-02T15:59:46;4.63;;;1.60;;
66607;SDS011;53462;39.616;8.824;2022-09-02T16:02:12;8.05;;;1.80;;
66607;SDS011;53462;39.616;8.824;2022-09-02T16:04:38;3.30;;;1.63;;
66607;SDS011;53462;39.616;8.824;2022-09-02T16:07:04;4.07;;;1.60;;
66607;SDS011;53462;39.616;8.824;2022-09-02T16:09:30;8.98;;;2.03;;
66607;SDS011;53462;39.616;8.824;2022-09-02T16:11:56;4.70;;;1.92;;
66607;SDS011;53462;39.616;8.824;2022-09-02T16:14:23;3.53;;;1.60;;
66607;SDS011;53462;39.616;8.824;2022-09-02T16:16:50;3.75;;;1.60;;
66607;SDS011;53462;39.616;8.824;2022-09-02T16:19:18;6.38;;;1.90;;
66607;SDS011;53462;39.616;8.824;2022-09-02T16:21:48;5.25;;;1.92;;
66607;SDS011;53462;39.616;8.824;2022-09-02T16:24:15;5.90;;;1.80;;
66607;SDS011;53462;39.616;8.824;2022-09-02T16:26:44;5.25;;;1.50;;
66607;SDS011;53462;39.616;8.824;2022-09-02T16:29:11;6.03;;;1.65;;
66607;SDS011;53462;39.616;8.824;2022-09-02T16:31:39;6.85;;;1.52;;
66607;SDS011;53462;39.616;8.824;2022-09-02T16:34:07;5.93;;;1.73;;
66607;SDS011;53462;39.616;8.824;2022-09-02T16:36:35;4.63;;;1.60;;
66607;SDS011;53462;39.616;8.824;2022-09-02T16:39:03;5.75;;;1.73;;
66607;SDS011;53462;39.616;8.824;2022-09-02T16:41:31;6.63;;;1.80;;
66607;SDS011;53462;39.616;8.824;2022-09-02T16:44:00;9.00;;;1.80;;
66607;SDS011;53462;39.616;8.824;2022-09-02T16:46:31;4.57;;;1.65;;
66607;SDS011;53462;39.616;8.824;2022-09-02T16:48:58;5.95;;;1.67;;
66607;SDS011;53462;39.616;8.824;2022-09-02T16:51:24;9.38;;;2.08;;
66607;SDS011;53462;39.616;8.824;2022-09-02T16:53:54;5.93;;;2.15;;
66607;SDS011;53462;39.616;8.824;2022-09-02T16:56:22;6.80;;;2.00;;
66607;SDS011;53462;39.616;8.824;2022-09-02T16:58:49;5.10;;;1.75;;
66607;SDS011;53462;39.616;8.824;2022-09-02T17:01:17;11.18;;;2.63;;
66607;SDS011;53462;39.616;8.824;2022-09-02T17:03:44;3.45;;;1.60;;
66607;SDS011;53462;39.616;8.824;2022-09-02T17:06:11;3.67;;;1.75;;
66607;SDS011;53462;39.616;8.824;2022-09-02T17:08:37;6.13;;;1.70;;
66607;SDS011;53462;39.616;8.824;2022-09-02T17:11:48;3.45;;;1.60;;
66607;SDS011;53462;39.616;8.824;2022-09-02T17:14:02;3.17;;;1.70;;
66607;SDS011;53462;39.616;8.824;2022-09-02T17:16:31;5.23;;;1.60;;
66607;SDS011;53462;39.616;8.824;2022-09-02T17:19:00;6.60;;;1.65;;
66607;SDS011;53462;39.616;8.824;2022-09-02T17:21:30;8.02;;;2.00;;
66607;SDS011;53462;39.616;8.824;2022-09-02T17:24:03;5.05;;;1.70;;
66607;SDS011;53462;39.616;8.824;2022-09-02T17:26:32;4.05;;;1.77;;
66607;SDS011;53462;39.616;8.824;2022-09-02T17:29:00;5.45;;;1.80;;
66607;SDS011;53462;39.616;8.824;2022-09-02T17:31:31;5.23;;;1.67;;
66607;SDS011;53462;39.616;8.824;2022-09-02T17:33:59;6.13;;;1.65;;